createdAt,value
2019-05-18T00:01:17.244Z,40.10
2019-05-18T00:03:45.997Z,37.03
2019-05-18T00:06:14.534Z,41.70
2019-05-18T00:08:43.039Z,38.67
2019-05-18T00:11:11.581Z,37.80
2019-05-18T00:13:40.188Z,37.70
2019-05-18T00:16:08.976Z,34.87
2019-05-18T00:18:37.616Z,39.17
2019-05-18T00:21:06.656Z,35.80
2019-05-18T00:23:35.225Z,33.57
2019-05-18T00:26:04.203Z,35.07
2019-05-18T00:28:32.747Z,39.23
2019-05-18T00:31:01.304Z,39.30
2019-05-18T00:33:30.261Z,34.83
2019-05-18T00:35:58.710Z,35.00
2019-05-18T00:38:27.230Z,36.70
2019-05-18T00:40:55.751Z,38.73
2019-05-18T00:43:24.279Z,34.13
2019-05-18T00:45:52.796Z,41.33
2019-05-18T00:48:21.352Z,40.70
2019-05-18T00:50:49.831Z,34.70
2019-05-18T00:53:18.950Z,39.30
2019-05-18T00:55:47.598Z,39.60
2019-05-18T00:58:16.137Z,36.80
2019-05-18T01:00:44.652Z,33.50
2019-05-18T01:03:13.123Z,33.43
2019-05-18T01:05:41.609Z,35.27
2019-05-18T01:08:10.190Z,36.77
2019-05-18T01:10:38.897Z,37.47
2019-05-18T01:13:07.659Z,32.43
2019-05-18T01:15:36.173Z,39.30
2019-05-18T01:18:05.633Z,34.60
2019-05-18T01:20:34.170Z,36.47
2019-05-18T01:23:02.755Z,37.97
2019-05-18T01:25:31.362Z,34.73
2019-05-18T01:28:00.137Z,35.07
2019-05-18T01:30:28.863Z,37.07
2019-05-18T01:32:57.323Z,39.60
2019-05-18T01:35:25.866Z,38.47
2019-05-18T01:37:54.369Z,35.77
2019-05-18T01:40:22.972Z,35.63
2019-05-18T01:42:51.917Z,47.43
2019-05-18T01:45:20.622Z,39.07
2019-05-18T01:47:49.088Z,42.20
2019-05-18T01:50:17.893Z,38.73
2019-05-18T01:52:46.404Z,44.37
2019-05-18T01:55:15.402Z,39.93
2019-05-18T01:57:44.378Z,39.73
2019-05-18T02:00:13.866Z,36.70
2019-05-18T02:02:42.589Z,45.17
2019-05-18T02:05:12.086Z,41.93
2019-05-18T02:07:40.675Z,38.17
2019-05-18T02:10:09.550Z,38.90
2019-05-18T02:12:38.918Z,38.97
2019-05-18T02:15:08.457Z,41.70
2019-05-18T02:17:36.929Z,49.73
2019-05-18T02:20:08.630Z,41.03
2019-05-18T02:22:37.130Z,44.57
2019-05-18T02:25:07.668Z,45.37
2019-05-18T02:27:36.203Z,45.33
2019-05-18T02:30:08.391Z,46.73
2019-05-18T02:32:36.985Z,44.40
2019-05-18T02:35:07.043Z,44.93
2019-05-18T02:37:35.731Z,47.60
2019-05-18T02:40:06.340Z,39.87
2019-05-18T02:42:34.887Z,42.90
2019-05-18T02:45:05.004Z,40.83
2019-05-18T02:47:34.178Z,37.43
2019-05-18T02:50:03.929Z,37.00
2019-05-18T02:52:32.517Z,42.50
2019-05-18T02:55:00.976Z,41.80
2019-05-18T02:57:29.509Z,46.53
2019-05-18T02:59:58.044Z,42.33
2019-05-18T03:02:26.554Z,44.50
2019-05-18T03:04:55.251Z,41.30
2019-05-18T03:07:23.734Z,43.33
2019-05-18T03:09:52.267Z,42.03
2019-05-18T03:12:20.737Z,41.80
2019-05-18T03:14:49.970Z,46.00
2019-05-18T03:17:18.426Z,46.47
2019-05-18T03:19:46.962Z,49.70
2019-05-18T03:22:15.465Z,48.73
2019-05-18T03:24:44.097Z,47.13
2019-05-18T03:27:12.780Z,53.00
2019-05-18T03:29:41.354Z,51.73
2019-05-18T03:32:09.819Z,48.33
2019-05-18T03:34:38.378Z,48.53
2019-05-18T03:37:06.967Z,46.77
2019-05-18T03:39:35.502Z,47.90
2019-05-18T03:42:04.043Z,51.40
2019-05-18T03:44:33.534Z,56.30
2019-05-18T03:47:02.104Z,52.27
2019-05-18T03:49:30.728Z,55.27
2019-05-18T03:51:59.295Z,55.40
2019-05-18T03:54:27.833Z,53.63
2019-05-18T03:56:56.294Z,55.83
2019-05-18T03:59:24.813Z,51.33
2019-05-18T04:01:53.349Z,56.87
2019-05-18T04:04:21.810Z,53.93
2019-05-18T04:06:50.374Z,50.20
2019-05-18T04:09:18.838Z,59.33
2019-05-18T04:11:47.307Z,57.40
2019-05-18T04:14:15.878Z,57.80
2019-05-18T04:16:44.340Z,62.37
2019-05-18T04:19:12.803Z,54.87
2019-05-18T04:21:41.942Z,58.03
2019-05-18T04:24:10.404Z,52.17
2019-05-18T04:26:38.877Z,64.00
2019-05-18T04:29:07.458Z,63.43
2019-05-18T04:31:36.006Z,52.83
2019-05-18T04:34:04.612Z,58.13
2019-05-18T04:36:33.648Z,72.00
2019-05-18T04:39:02.198Z,78.63
2019-05-18T04:41:30.782Z,82.00
2019-05-18T04:43:59.383Z,71.77
2019-05-18T04:46:27.949Z,74.13
2019-05-18T04:48:56.427Z,73.30
2019-05-18T04:51:25.001Z,67.13
2019-05-18T04:53:53.547Z,63.07
2019-05-18T04:56:22.360Z,62.27
2019-05-18T04:58:50.872Z,59.80
2019-05-18T05:01:19.335Z,56.27
2019-05-18T05:03:47.869Z,50.07
2019-05-18T05:06:16.369Z,45.97
2019-05-18T05:08:44.903Z,52.23
2019-05-18T05:11:13.376Z,59.33
2019-05-18T05:13:41.922Z,48.70
2019-05-18T05:16:10.461Z,51.07
2019-05-18T05:18:38.927Z,47.53
2019-05-18T05:21:07.581Z,49.10
2019-05-18T05:23:36.038Z,58.40
2019-05-18T05:26:04.630Z,58.43
2019-05-18T05:28:33.253Z,48.53
2019-05-18T05:31:01.809Z,55.67
2019-05-18T05:33:30.601Z,65.30
2019-05-18T05:35:59.101Z,61.00
2019-05-18T05:38:27.565Z,64.57
2019-05-18T05:40:56.115Z,62.90
2019-05-18T05:43:24.670Z,63.27
2019-05-18T05:45:53.138Z,67.23
2019-05-18T05:48:21.682Z,65.10
2019-05-18T05:50:50.351Z,57.37
2019-05-18T05:53:18.878Z,78.03
2019-05-18T05:55:47.346Z,74.70
2019-05-18T05:58:15.838Z,71.00
2019-05-18T06:00:44.314Z,72.23
2019-05-18T06:03:12.907Z,77.40
2019-05-18T06:05:41.432Z,84.97
2019-05-18T06:08:09.973Z,90.00
2019-05-18T06:10:38.530Z,87.90
2019-05-18T06:13:07.112Z,82.10
2019-05-18T06:15:35.654Z,94.20
2019-05-18T06:18:04.255Z,71.67
2019-05-18T06:20:32.951Z,75.97
2019-05-18T06:23:01.507Z,91.30
2019-05-18T06:25:34.092Z,76.77
2019-05-18T06:28:00.248Z,73.37
2019-05-18T06:30:28.777Z,77.63
2019-05-18T06:32:57.239Z,79.10
2019-05-18T06:35:25.743Z,73.37
2019-05-18T06:37:54.202Z,79.67
2019-05-18T06:40:22.679Z,77.80
2019-05-18T06:42:51.184Z,74.40
2019-05-18T06:45:20.098Z,76.00
2019-05-18T06:47:48.640Z,66.73
2019-05-18T06:50:20.217Z,70.03
2019-05-18T06:52:48.862Z,62.77
2019-05-18T06:55:17.439Z,65.10
2019-05-18T06:57:47.293Z,61.00
2019-05-18T07:00:19.248Z,59.77
2019-05-18T07:02:47.734Z,58.47
2019-05-18T07:05:16.349Z,66.70
2019-05-18T07:07:44.821Z,49.43
2019-05-18T07:10:13.351Z,56.40
2019-05-18T07:12:41.918Z,57.07
2019-05-18T07:15:11.714Z,52.47
2019-05-18T07:17:40.248Z,47.97
2019-05-18T07:20:10.779Z,43.27
2019-05-18T07:22:39.237Z,39.77
2019-05-18T07:25:08.147Z,39.37
2019-05-18T07:27:36.725Z,49.07
2019-05-18T07:30:09.630Z,43.67
2019-05-18T07:32:38.294Z,44.10
2019-05-18T07:35:07.890Z,43.73
2019-05-18T07:37:36.499Z,56.47
2019-05-18T07:40:09.695Z,63.70
2019-05-18T07:42:38.208Z,59.77
2019-05-18T07:45:09.073Z,68.90
2019-05-18T07:47:37.538Z,67.10
2019-05-18T07:50:08.084Z,66.87
2019-05-18T07:52:36.557Z,58.07
2019-05-18T07:55:06.621Z,53.47
2019-05-18T07:57:35.130Z,52.43
2019-05-18T08:00:04.927Z,53.60
2019-05-18T08:02:34.004Z,57.20
2019-05-18T08:05:02.514Z,56.80
2019-05-18T08:07:31.299Z,60.13
2019-05-18T08:09:59.827Z,57.90
2019-05-18T08:12:28.339Z,55.13
2019-05-18T08:14:57.063Z,58.83
2019-05-18T08:17:25.544Z,61.13
2019-05-18T08:19:54.128Z,52.33
2019-05-18T08:22:22.593Z,50.77
2019-05-18T08:24:51.242Z,50.60
2019-05-18T08:27:19.772Z,46.67
2019-05-18T08:29:48.228Z,49.23
2019-05-18T08:32:16.766Z,51.77
2019-05-18T08:34:45.272Z,50.27
2019-05-18T08:37:13.721Z,48.27
2019-05-18T08:39:42.191Z,47.87
2019-05-18T08:42:10.852Z,52.10
2019-05-18T08:44:39.398Z,45.40
2019-05-18T08:47:07.961Z,43.60
2019-05-18T08:49:36.541Z,39.23
2019-05-18T08:52:08.252Z,44.03
2019-05-18T08:54:35.262Z,40.67
2019-05-18T08:57:04.015Z,41.13
2019-05-18T08:59:32.496Z,37.77
2019-05-18T09:02:01.109Z,42.77
2019-05-18T09:04:29.611Z,44.50
2019-05-18T09:06:58.082Z,35.73
2019-05-18T09:09:26.619Z,30.17
2019-05-18T09:11:55.263Z,25.27
2019-05-18T09:14:23.723Z,20.60
2019-05-18T09:16:52.187Z,21.30
2019-05-18T09:19:20.752Z,16.57
2019-05-18T09:21:49.225Z,22.47
2019-05-18T09:24:17.835Z,16.83
2019-05-18T09:26:46.455Z,23.33
2019-05-18T09:29:15.054Z,22.13
2019-05-18T09:31:43.539Z,16.40
2019-05-18T09:34:12.101Z,17.07
2019-05-18T09:36:40.572Z,21.70
2019-05-18T09:39:09.029Z,15.90
2019-05-18T09:41:37.518Z,19.03
2019-05-18T09:44:06.140Z,18.67
2019-05-18T09:46:34.751Z,14.60
2019-05-18T09:49:03.309Z,15.53
2019-05-18T09:51:31.770Z,13.93
2019-05-18T09:54:00.223Z,13.60
2019-05-18T09:56:28.714Z,14.13
2019-05-18T09:58:57.177Z,11.77
2019-05-18T10:01:25.629Z,9.63
2019-05-18T10:03:54.191Z,9.30
2019-05-18T10:06:22.740Z,10.50
2019-05-18T10:08:51.262Z,10.93
2019-05-18T10:11:19.773Z,8.20
2019-05-18T10:13:48.235Z,8.87
2019-05-18T10:16:16.710Z,9.90
2019-05-18T10:18:45.292Z,8.27
2019-05-18T10:21:13.759Z,12.17
2019-05-18T10:23:42.302Z,10.23
2019-05-18T10:26:10.804Z,11.70
2019-05-18T10:28:39.411Z,12.47
2019-05-18T10:31:07.930Z,8.37
2019-05-18T10:33:36.417Z,8.40
2019-05-18T10:36:04.966Z,10.17
2019-05-18T10:38:33.670Z,9.20
2019-05-18T10:41:02.185Z,10.07
2019-05-18T10:43:30.977Z,9.27
2019-05-18T10:45:59.489Z,6.87
2019-05-18T10:48:28.075Z,9.47
2019-05-18T10:50:56.543Z,10.30
2019-05-18T10:53:28.877Z,9.33
2019-05-18T10:55:55.303Z,11.97
2019-05-18T10:58:23.791Z,11.90
2019-05-18T11:00:52.382Z,10.53
2019-05-18T11:03:20.976Z,14.43
2019-05-18T11:05:49.437Z,11.93
2019-05-18T11:08:17.953Z,12.60
2019-05-18T11:10:46.474Z,17.57
2019-05-18T11:13:17.172Z,15.80
2019-05-18T11:15:45.178Z,12.30
2019-05-18T11:18:13.687Z,13.47
2019-05-18T11:20:42.175Z,13.27
2019-05-18T11:23:10.714Z,11.73
2019-05-18T11:25:39.294Z,16.37
2019-05-18T11:28:07.826Z,14.47
2019-05-18T11:30:36.417Z,17.03
2019-05-18T11:33:05.298Z,12.20
2019-05-18T11:35:34.052Z,13.00
2019-05-18T11:38:02.524Z,13.87
2019-05-18T11:40:31.040Z,14.47
2019-05-18T11:42:59.562Z,13.23
2019-05-18T11:45:28.257Z,16.23
2019-05-18T11:47:56.814Z,16.37
2019-05-18T11:50:25.820Z,22.53
2019-05-18T11:52:54.363Z,15.70
2019-05-18T11:55:23.103Z,13.03
2019-05-18T11:57:51.562Z,13.63
2019-05-18T12:00:21.005Z,14.50
2019-05-18T12:02:49.642Z,16.40
2019-05-18T12:05:18.247Z,13.93
2019-05-18T12:07:46.850Z,16.23
2019-05-18T12:10:18.325Z,15.57
2019-05-18T12:12:46.830Z,14.10
2019-05-18T12:15:16.335Z,11.30
2019-05-18T12:17:44.913Z,14.93
2019-05-18T12:20:14.717Z,20.00
2019-05-18T12:22:43.185Z,12.83
2019-05-18T12:25:12.726Z,13.30
2019-05-18T12:27:41.333Z,14.33
2019-05-18T12:30:11.342Z,13.60
2019-05-18T12:32:41.565Z,12.60
2019-05-18T12:35:10.757Z,10.73
2019-05-18T12:37:39.369Z,13.63
2019-05-18T12:40:09.832Z,19.07
2019-05-18T12:42:38.374Z,12.17
2019-05-18T12:45:09.140Z,15.37
2019-05-18T12:47:37.653Z,12.53
2019-05-18T12:50:08.986Z,15.63
2019-05-18T12:52:37.519Z,13.83
2019-05-18T12:55:06.741Z,14.07
2019-05-18T12:57:36.739Z,12.30
2019-05-18T13:00:14.583Z,11.50
2019-05-18T13:02:43.390Z,13.97
2019-05-18T13:05:12.939Z,10.13
2019-05-18T13:07:41.498Z,15.17
2019-05-18T13:10:11.196Z,11.30
2019-05-18T13:12:39.724Z,11.93
2019-05-18T13:15:10.667Z,14.37
2019-05-18T13:17:39.956Z,13.33
2019-05-18T13:20:10.465Z,11.33
2019-05-18T13:22:39.163Z,11.60
2019-05-18T13:25:09.877Z,11.50
2019-05-18T13:27:40.040Z,10.73
2019-05-18T13:30:13.803Z,13.37
2019-05-18T13:32:42.398Z,12.70
2019-05-18T13:35:12.322Z,12.17
2019-05-18T13:37:40.911Z,17.83
2019-05-18T13:40:10.573Z,12.13
2019-05-18T13:42:39.239Z,13.83
2019-05-18T13:45:09.159Z,12.80
2019-05-18T13:47:37.628Z,11.90
2019-05-18T13:50:07.365Z,12.17
2019-05-18T13:52:36.470Z,13.83
2019-05-18T13:55:06.378Z,13.03
2019-05-18T13:57:35.495Z,10.70
2019-05-18T14:00:06.579Z,14.90
2019-05-18T14:02:35.250Z,12.83
2019-05-18T14:05:04.907Z,13.93
2019-05-18T14:07:34.084Z,14.03
2019-05-18T14:10:02.680Z,8.23
2019-05-18T14:12:31.361Z,11.53
2019-05-18T14:14:59.936Z,10.70
2019-05-18T14:17:28.623Z,8.93
2019-05-18T14:19:57.161Z,10.83
2019-05-18T14:22:26.079Z,14.77
2019-05-18T14:24:54.627Z,9.60
2019-05-18T14:27:23.151Z,11.30
2019-05-18T14:29:51.726Z,9.77
2019-05-18T14:32:20.214Z,16.67
2019-05-18T14:34:48.687Z,12.03
2019-05-18T14:37:17.204Z,11.13
2019-05-18T14:39:45.740Z,11.87
2019-05-18T14:42:14.271Z,12.33
2019-05-18T14:44:42.782Z,10.33
2019-05-18T14:47:11.318Z,11.80
2019-05-18T14:49:39.916Z,14.67
2019-05-18T14:52:11.848Z,11.20
2019-05-18T14:54:38.667Z,11.00
2019-05-18T14:57:07.189Z,9.97
2019-05-18T14:59:35.821Z,15.33
2019-05-18T15:02:04.580Z,13.03
2019-05-18T15:04:33.542Z,8.90
2019-05-18T15:07:02.058Z,9.67
2019-05-18T15:09:30.713Z,10.37
2019-05-18T15:11:59.194Z,11.53
2019-05-18T15:14:27.763Z,9.27
2019-05-18T15:16:56.591Z,15.50
2019-05-18T15:19:25.059Z,14.33
2019-05-18T15:21:53.715Z,10.97
2019-05-18T15:24:22.194Z,13.23
2019-05-18T15:26:50.727Z,10.57
2019-05-18T15:29:19.303Z,14.77
2019-05-18T15:31:47.834Z,11.03
2019-05-18T15:34:16.358Z,11.77
2019-05-18T15:36:44.850Z,8.43
2019-05-18T15:39:13.380Z,12.10
2019-05-18T15:41:41.848Z,12.73
2019-05-18T15:44:10.726Z,10.13
2019-05-18T15:46:39.906Z,13.70
2019-05-18T15:49:08.443Z,8.90
2019-05-18T15:51:37.269Z,8.47
2019-05-18T15:54:05.738Z,11.33
2019-05-18T15:56:34.205Z,11.50
2019-05-18T15:59:02.842Z,9.07
2019-05-18T16:01:31.426Z,8.90
2019-05-18T16:03:59.967Z,12.27
2019-05-18T16:06:28.546Z,13.17
2019-05-18T16:08:57.105Z,7.80
2019-05-18T16:11:26.038Z,10.33
2019-05-18T16:13:54.597Z,9.03
2019-05-18T16:16:23.050Z,8.87
2019-05-18T16:18:52.632Z,10.87
2019-05-18T16:21:21.231Z,9.37
2019-05-18T16:23:49.688Z,9.40
2019-05-18T16:26:21.533Z,7.07
2019-05-18T16:28:48.609Z,7.97
2019-05-18T16:31:17.081Z,14.17
2019-05-18T16:33:45.874Z,7.40
2019-05-18T16:36:14.397Z,8.77
2019-05-18T16:38:42.867Z,8.00
2019-05-18T16:41:11.402Z,9.60
2019-05-18T16:43:40.035Z,8.40
2019-05-18T16:46:08.640Z,13.60
2019-05-18T16:48:39.385Z,9.00
2019-05-18T16:51:07.463Z,7.37
2019-05-18T16:53:35.931Z,13.37
2019-05-18T16:56:04.466Z,11.60
2019-05-18T16:58:32.975Z,9.20
2019-05-18T17:01:01.433Z,8.13
2019-05-18T17:03:29.893Z,9.20
2019-05-18T17:05:58.554Z,9.60
2019-05-18T17:08:27.466Z,8.97
2019-05-18T17:10:56.072Z,9.53
2019-05-18T17:13:24.631Z,10.10
2019-05-18T17:15:53.223Z,8.43
2019-05-18T17:18:21.757Z,12.27
2019-05-18T17:20:50.367Z,9.13
2019-05-18T17:23:20.383Z,10.27
2019-05-18T17:25:48.932Z,12.33
2019-05-18T17:28:17.438Z,10.43
2019-05-18T17:30:46.048Z,15.40
2019-05-18T17:33:14.638Z,12.73
2019-05-18T17:35:57.931Z,10.73
2019-05-18T17:38:13.329Z,10.60
2019-05-18T17:40:42.060Z,10.73
2019-05-18T17:43:10.705Z,12.40
2019-05-18T17:45:39.166Z,10.93
2019-05-18T17:48:07.758Z,11.87
2019-05-18T17:50:37.817Z,13.77
2019-05-18T17:53:06.277Z,12.93
2019-05-18T17:55:34.813Z,16.60
2019-05-18T17:58:03.481Z,13.67
2019-05-18T18:00:32.153Z,17.60
2019-05-18T18:03:00.601Z,16.20
2019-05-18T18:05:29.166Z,10.67
2019-05-18T18:07:58.002Z,14.03
2019-05-18T18:10:26.521Z,18.60
2019-05-18T18:12:55.024Z,12.77
2019-05-18T18:15:23.543Z,16.17
2019-05-18T18:17:52.078Z,17.50
2019-05-18T18:20:21.099Z,19.07
2019-05-18T18:22:49.563Z,20.00
2019-05-18T18:25:18.100Z,16.73
2019-05-18T18:27:46.679Z,16.43
2019-05-18T18:30:15.202Z,16.10
2019-05-18T18:32:43.664Z,25.27
2019-05-18T18:35:12.305Z,17.93
2019-05-18T18:37:40.810Z,20.80
2019-05-18T18:40:09.673Z,17.63
2019-05-18T18:42:38.272Z,15.30
2019-05-18T18:45:09.146Z,15.17
2019-05-18T18:47:37.773Z,20.77
2019-05-18T18:50:07.484Z,17.20
2019-05-18T18:52:35.978Z,22.20
2019-05-18T18:55:08.484Z,18.67
2019-05-18T18:57:41.114Z,24.20
2019-05-18T19:00:09.462Z,20.53
2019-05-18T19:02:37.996Z,19.73
2019-05-18T19:05:07.801Z,21.67
2019-05-18T19:07:36.276Z,21.73
2019-05-18T19:10:05.961Z,23.00
2019-05-18T19:12:37.401Z,20.97
2019-05-18T19:15:07.388Z,24.07
2019-05-18T19:17:35.987Z,22.43
2019-05-18T19:20:05.729Z,19.67
2019-05-18T19:22:34.191Z,22.60
2019-05-18T19:25:02.728Z,23.43
2019-05-18T19:27:31.369Z,28.47
2019-05-18T19:29:59.840Z,24.23
2019-05-18T19:32:28.304Z,24.47
2019-05-18T19:34:56.879Z,22.40
2019-05-18T19:37:26.496Z,21.07
2019-05-18T19:39:55.401Z,18.20
2019-05-18T19:42:23.924Z,20.77
2019-05-18T19:44:52.472Z,20.07
2019-05-18T19:47:20.966Z,27.53
2019-05-18T19:49:49.646Z,24.23
2019-05-18T19:52:18.114Z,22.47
2019-05-18T19:54:46.570Z,21.57
2019-05-18T19:57:15.069Z,19.13
2019-05-18T19:59:43.593Z,21.53
2019-05-18T20:02:12.062Z,19.87
2019-05-18T20:04:41.565Z,19.97
2019-05-18T20:07:10.353Z,19.60
2019-05-18T20:09:38.928Z,21.17
2019-05-18T20:12:07.630Z,21.97
2019-05-18T20:14:36.252Z,21.53
2019-05-18T20:17:05.129Z,17.53
2019-05-18T20:19:39.450Z,21.80
2019-05-18T20:22:05.263Z,18.90
2019-05-18T20:24:34.991Z,21.30
2019-05-18T20:27:03.904Z,21.40
2019-05-18T20:29:32.545Z,17.73
2019-05-18T20:32:01.566Z,15.80
2019-05-18T20:34:30.307Z,18.50
2019-05-18T20:36:59.002Z,22.17
2019-05-18T20:39:27.538Z,19.23
2019-05-18T20:41:56.353Z,18.80
2019-05-18T20:44:25.039Z,21.03
2019-05-18T20:46:54.719Z,20.03
2019-05-18T20:49:23.651Z,22.00
2019-05-18T20:51:52.203Z,20.53
2019-05-18T20:54:20.985Z,23.40
2019-05-18T20:56:49.813Z,19.87
2019-05-18T20:59:18.346Z,20.20
2019-05-18T21:01:46.813Z,17.73
2019-05-18T21:04:15.407Z,17.17
2019-05-18T21:06:45.624Z,17.57
2019-05-18T21:09:14.341Z,18.43
2019-05-18T21:11:43.061Z,16.03
2019-05-18T21:14:11.702Z,17.47
2019-05-18T21:16:40.426Z,21.10
2019-05-18T21:19:09.124Z,16.27
2019-05-18T21:21:37.774Z,17.80
2019-05-18T21:24:06.449Z,22.07
2019-05-18T21:26:35.159Z,23.33
2019-05-18T21:29:03.907Z,24.83
2019-05-18T21:31:32.570Z,15.97
2019-05-18T21:34:01.252Z,24.23
2019-05-18T21:36:29.880Z,25.87
2019-05-18T21:38:58.600Z,19.10
2019-05-18T21:41:27.308Z,17.67
2019-05-18T21:43:55.953Z,17.87
2019-05-18T21:46:24.623Z,19.20
2019-05-18T21:48:53.396Z,25.00
2019-05-18T21:51:22.003Z,18.07
2019-05-18T21:53:50.465Z,17.90
2019-05-18T21:56:18.988Z,17.13
2019-05-18T21:58:47.633Z,20.43
2019-05-18T22:01:16.465Z,16.40
2019-05-18T22:03:48.183Z,13.43
2019-05-18T22:06:15.595Z,18.57
2019-05-18T22:08:44.458Z,17.70
2019-05-18T22:11:13.457Z,16.40
2019-05-18T22:13:42.373Z,14.30
2019-05-18T22:16:10.966Z,16.70
2019-05-18T22:18:39.649Z,13.70
2019-05-18T22:21:08.286Z,19.17
2019-05-18T22:23:36.964Z,16.27
2019-05-18T22:26:05.701Z,21.87
2019-05-18T22:28:34.346Z,18.47
2019-05-18T22:31:03.013Z,17.13
2019-05-18T22:33:31.874Z,13.77
2019-05-18T22:36:00.394Z,18.27
2019-05-18T22:38:29.073Z,16.07
2019-05-18T22:40:57.851Z,13.67
2019-05-18T22:43:26.474Z,12.30
2019-05-18T22:45:55.138Z,15.70
2019-05-18T22:48:23.887Z,10.33
2019-05-18T22:50:52.518Z,12.80
2019-05-18T22:53:21.279Z,13.53
2019-05-18T22:55:49.925Z,14.47
2019-05-18T22:58:18.563Z,14.70
2019-05-18T23:00:47.326Z,15.07
2019-05-18T23:03:16.011Z,11.77
2019-05-18T23:05:44.624Z,13.83
2019-05-18T23:08:13.319Z,11.60
2019-05-18T23:10:42.926Z,14.70
2019-05-18T23:13:11.529Z,15.53
2019-05-18T23:15:40.458Z,16.93
2019-05-18T23:18:09.364Z,12.17
2019-05-18T23:20:37.996Z,17.27
2019-05-18T23:23:06.737Z,17.23
2019-05-18T23:25:35.389Z,13.80
2019-05-18T23:28:04.090Z,14.50
2019-05-18T23:30:32.786Z,13.23
2019-05-18T23:33:01.796Z,13.43
2019-05-18T23:35:30.509Z,13.17
2019-05-18T23:37:59.332Z,14.73
2019-05-18T23:40:27.925Z,13.10
2019-05-18T23:42:56.661Z,13.97
2019-05-18T23:45:25.239Z,15.73
2019-05-18T23:47:54.094Z,14.90
2019-05-18T23:50:22.619Z,11.97
2019-05-18T23:52:51.345Z,17.93
2019-05-18T23:55:20.297Z,15.33
2019-05-18T23:57:48.750Z,16.77
